createdAt,value
2017-03-01T00:00:11.113Z,13.43
2017-03-01T00:00:51.602Z,13.43
2017-03-01T00:01:32.092Z,13.43
2017-03-01T00:02:12.597Z,13.52
2017-03-01T00:02:53.108Z,13.62
2017-03-01T00:03:33.599Z,13.43
2017-03-01T00:04:14.096Z,13.43
2017-03-01T00:04:54.596Z,13.62
2017-03-01T00:05:35.094Z,13.43
2017-03-01T00:06:15.590Z,13.52
2017-03-01T00:06:56.111Z,13.43
2017-03-01T00:07:36.598Z,13.62
2017-03-01T00:08:17.112Z,13.43
2017-03-01T00:08:57.597Z,13.52
2017-03-01T00:09:38.110Z,13.43
2017-03-01T00:10:18.594Z,13.43
2017-03-01T00:10:59.101Z,13.43
2017-03-01T00:11:39.598Z,13.62
2017-03-01T00:12:20.084Z,13.52
2017-03-01T00:13:00.623Z,13.43
2017-03-01T00:13:41.100Z,13.33
2017-03-01T00:14:21.590Z,13.52
2017-03-01T00:15:02.086Z,13.43
2017-03-01T00:15:42.590Z,13.62
2017-03-01T00:16:23.085Z,13.62
2017-03-01T00:17:03.582Z,13.43
2017-03-01T00:17:44.080Z,13.52
2017-03-01T00:18:24.584Z,13.62
2017-03-01T00:19:05.079Z,13.43
2017-03-01T00:19:45.587Z,13.52
2017-03-01T00:20:26.050Z,13.52
2017-03-01T00:21:06.543Z,13.43
2017-03-01T00:21:47.029Z,13.43
2017-03-01T00:22:27.524Z,13.43
2017-03-01T00:23:08.025Z,13.43
2017-03-01T00:23:48.524Z,13.43
2017-03-01T00:24:29.024Z,13.43
2017-03-01T00:25:09.503Z,13.43
2017-03-01T00:25:49.992Z,13.43
2017-03-01T00:26:30.484Z,13.33
2017-03-01T00:27:10.983Z,13.43
2017-03-01T00:27:51.472Z,13.52
2017-03-01T00:28:31.972Z,13.43
2017-03-01T00:29:12.467Z,13.43
2017-03-01T00:29:52.985Z,13.43
2017-03-01T00:30:33.472Z,13.52
2017-03-01T00:31:13.967Z,13.52
2017-03-01T00:31:54.465Z,13.52
2017-03-01T00:32:34.980Z,13.43
2017-03-01T00:33:15.469Z,13.43
2017-03-01T00:33:55.967Z,13.52
2017-03-01T00:34:36.463Z,13.33
2017-03-01T00:35:16.955Z,13.52
2017-03-01T00:35:57.446Z,13.52
2017-03-01T00:36:37.935Z,13.71
2017-03-01T00:37:18.441Z,13.33
2017-03-01T00:37:58.938Z,13.43
2017-03-01T00:38:39.440Z,13.33
2017-03-01T00:39:19.929Z,13.23
2017-03-01T00:40:00.438Z,13.71
2017-03-01T00:40:40.926Z,13.43
2017-03-01T00:41:21.419Z,13.43
2017-03-01T00:42:01.908Z,13.33
2017-03-01T00:42:42.420Z,13.33
2017-03-01T00:43:22.907Z,13.33
2017-03-01T00:44:03.406Z,13.23
2017-03-01T00:44:43.894Z,13.33
2017-03-01T00:45:24.388Z,13.71
2017-03-01T00:46:04.874Z,13.13
2017-03-01T00:46:45.363Z,13.62
2017-03-01T00:47:25.862Z,13.33
2017-03-01T00:48:06.350Z,13.71
2017-03-01T00:48:46.845Z,13.62
2017-03-01T00:49:27.351Z,13.33
2017-03-01T00:50:07.864Z,13.23
2017-03-01T00:50:48.345Z,13.23
2017-03-01T00:51:28.861Z,13.23
2017-03-01T00:52:09.348Z,13.33
2017-03-01T00:52:49.858Z,13.62
2017-03-01T00:53:30.346Z,13.33
2017-03-01T00:54:10.843Z,13.71
2017-03-01T00:54:51.338Z,13.13
2017-03-01T00:55:31.822Z,13.23
2017-03-01T00:56:12.313Z,13.13
2017-03-01T00:56:52.794Z,13.23
2017-03-01T00:57:33.315Z,13.23
2017-03-01T00:58:13.813Z,13.13
2017-03-01T00:58:54.334Z,13.13
2017-03-01T00:59:34.814Z,13.23
2017-03-01T01:00:15.312Z,13.62
2017-03-01T01:00:55.792Z,13.13
2017-03-01T01:01:36.298Z,13.81
2017-03-01T01:02:16.790Z,13.43
2017-03-01T01:02:57.301Z,13.23
2017-03-01T01:03:37.789Z,13.43
2017-03-01T01:04:18.284Z,13.33
2017-03-01T01:04:58.777Z,13.23
2017-03-01T01:05:39.267Z,13.33
2017-03-01T01:06:19.749Z,13.23
2017-03-01T01:07:00.235Z,13.23
2017-03-01T01:07:40.745Z,13.33
2017-03-01T01:08:21.232Z,13.43
2017-03-01T01:09:01.727Z,13.33
2017-03-01T01:09:42.237Z,13.33
2017-03-01T01:10:22.738Z,13.33
2017-03-01T01:11:03.229Z,13.43
2017-03-01T01:11:43.728Z,13.43
2017-03-01T01:12:24.228Z,13.33
2017-03-01T01:13:04.736Z,13.62
2017-03-01T01:13:45.228Z,13.52
2017-03-01T01:14:25.740Z,13.52
2017-03-01T01:15:06.228Z,13.43
2017-03-01T01:15:46.721Z,13.52
2017-03-01T01:16:27.202Z,13.52
2017-03-01T01:17:07.696Z,13.23
2017-03-01T01:17:48.195Z,13.23
2017-03-01T01:18:28.678Z,13.33
2017-03-01T01:19:09.181Z,13.52
2017-03-01T01:19:49.675Z,13.62
2017-03-01T01:20:30.163Z,13.62
2017-03-01T01:21:10.669Z,13.23
2017-03-01T01:21:51.149Z,13.33
2017-03-01T01:22:31.639Z,13.43
2017-03-01T01:23:12.125Z,13.62
2017-03-01T01:23:52.624Z,13.23
2017-03-01T01:24:33.112Z,13.23
2017-03-01T01:25:13.608Z,13.33
2017-03-01T01:25:54.104Z,13.23
2017-03-01T01:26:34.590Z,13.23
2017-03-01T01:27:15.087Z,13.43
2017-03-01T01:27:55.576Z,13.62
2017-03-01T01:28:36.070Z,13.13
2017-03-01T01:29:16.664Z,13.62
2017-03-01T01:29:57.169Z,13.13
2017-03-01T01:30:37.663Z,13.33
2017-03-01T01:31:18.156Z,13.23
2017-03-01T01:31:58.636Z,13.43
2017-03-01T01:32:39.173Z,13.23
2017-03-01T01:33:19.660Z,13.33
2017-03-01T01:34:00.168Z,13.23
2017-03-01T01:34:40.662Z,13.43
2017-03-01T01:35:21.172Z,13.43
2017-03-01T01:36:01.657Z,13.52
2017-03-01T01:36:42.165Z,13.43
2017-03-01T01:37:22.654Z,13.43
2017-03-01T01:38:03.165Z,13.33
2017-03-01T01:38:43.655Z,13.43
2017-03-01T01:39:24.161Z,13.71
2017-03-01T01:40:04.654Z,13.23
2017-03-01T01:40:45.149Z,13.33
2017-03-01T01:41:25.650Z,13.43
2017-03-01T01:42:06.150Z,13.43
2017-03-01T01:42:46.650Z,13.23
2017-03-01T01:43:27.160Z,13.43
2017-03-01T01:44:07.647Z,13.62
2017-03-01T01:44:48.142Z,13.62
2017-03-01T01:45:28.650Z,13.43
2017-03-01T01:46:09.141Z,13.23
2017-03-01T01:46:49.638Z,13.52
2017-03-01T01:47:30.114Z,13.52
2017-03-01T01:48:10.619Z,13.52
2017-03-01T01:48:51.110Z,13.23
2017-03-01T01:49:31.627Z,13.23
2017-03-01T01:50:12.119Z,13.62
2017-03-01T01:50:52.610Z,13.52
2017-03-01T01:51:33.093Z,13.52
2017-03-01T01:52:13.599Z,13.52
2017-03-01T01:52:54.089Z,13.13
2017-03-01T01:53:34.596Z,13.23
2017-03-01T01:54:15.090Z,13.23
2017-03-01T01:54:55.599Z,13.52
2017-03-01T01:55:36.089Z,13.43
2017-03-01T01:56:16.584Z,13.52
2017-03-01T01:56:57.080Z,13.62
2017-03-01T01:57:37.578Z,13.62
2017-03-01T01:58:18.084Z,13.23
2017-03-01T01:58:58.577Z,13.62
2017-03-01T01:59:39.064Z,13.23
2017-03-01T02:00:19.560Z,13.43
2017-03-01T02:01:00.053Z,13.43
2017-03-01T02:01:40.545Z,13.52
2017-03-01T02:02:21.044Z,13.52
2017-03-01T02:03:01.528Z,13.43
2017-03-01T02:03:42.044Z,13.52
2017-03-01T02:04:22.530Z,13.52
2017-03-01T02:05:03.045Z,13.23
2017-03-01T02:05:43.532Z,13.52
2017-03-01T02:06:24.047Z,13.13
2017-03-01T02:07:04.535Z,13.43
2017-03-01T02:07:45.035Z,13.43
2017-03-01T02:08:25.523Z,13.23
2017-03-01T02:09:06.017Z,13.43
2017-03-01T02:09:46.524Z,13.52
2017-03-01T02:10:27.020Z,13.43
2017-03-01T02:11:07.516Z,13.23
2017-03-01T02:11:48.011Z,13.23
2017-03-01T02:12:28.497Z,13.33
2017-03-01T02:13:08.991Z,13.43
2017-03-01T02:13:49.486Z,13.52
2017-03-01T02:14:29.980Z,13.23
2017-03-01T02:15:10.459Z,13.43
2017-03-01T02:15:50.965Z,13.43
2017-03-01T02:16:31.458Z,13.43
2017-03-01T02:17:11.940Z,13.33
2017-03-01T02:17:52.425Z,13.23
2017-03-01T02:18:32.922Z,13.43
2017-03-01T02:19:13.416Z,13.23
2017-03-01T02:19:53.904Z,13.23
2017-03-01T02:20:34.411Z,13.23
2017-03-01T02:21:14.916Z,13.33
2017-03-01T02:21:55.408Z,13.52
2017-03-01T02:22:35.906Z,13.33
2017-03-01T02:23:16.407Z,13.32
2017-03-01T02:23:56.901Z,13.32
2017-03-01T02:24:37.385Z,13.42
2017-03-01T02:25:17.879Z,13.62
2017-03-01T02:25:58.373Z,13.52
2017-03-01T02:26:38.856Z,13.51
2017-03-01T02:27:19.347Z,13.23
2017-03-01T02:27:59.845Z,13.23
2017-03-01T02:28:40.358Z,13.33
2017-03-01T02:29:20.848Z,13.13
2017-03-01T02:30:01.344Z,13.43
2017-03-01T02:30:41.827Z,13.43
2017-03-01T02:31:22.326Z,13.43
2017-03-01T02:32:02.817Z,13.23
2017-03-01T02:32:43.306Z,13.62
2017-03-01T02:33:23.805Z,13.62
2017-03-01T02:34:04.294Z,13.13
2017-03-01T02:34:44.792Z,13.52
2017-03-01T02:35:25.294Z,13.23
2017-03-01T02:36:05.789Z,13.52
2017-03-01T02:36:46.289Z,13.23
2017-03-01T02:37:26.805Z,13.23
2017-03-01T02:38:07.291Z,13.33
2017-03-01T02:38:47.783Z,13.43
2017-03-01T02:39:28.279Z,13.33
2017-03-01T02:40:08.767Z,13.62
2017-03-01T02:40:49.254Z,13.42
2017-03-01T02:41:29.745Z,13.33
2017-03-01T02:42:10.245Z,13.61
2017-03-01T02:42:50.734Z,13.23
2017-03-01T02:43:31.243Z,13.33
2017-03-01T02:44:11.736Z,13.61
2017-03-01T02:44:52.229Z,13.62
2017-03-01T02:45:32.733Z,13.51
2017-03-01T02:46:13.228Z,13.62
2017-03-01T02:46:53.720Z,13.33
2017-03-01T02:47:34.208Z,13.62
2017-03-01T02:48:14.692Z,13.62
2017-03-01T02:48:55.178Z,13.52
2017-03-01T02:49:35.671Z,13.23
2017-03-01T02:50:16.170Z,13.61
2017-03-01T02:50:56.671Z,13.52
2017-03-01T02:51:37.149Z,13.43
2017-03-01T02:52:17.640Z,13.43
2017-03-01T02:52:58.134Z,13.52
2017-03-01T02:53:38.621Z,13.43
2017-03-01T02:54:19.114Z,13.42
2017-03-01T02:54:59.602Z,13.52
2017-03-01T02:55:40.099Z,13.23
2017-03-01T02:56:20.592Z,13.52
2017-03-01T02:57:01.079Z,13.51
2017-03-01T02:57:41.573Z,13.23
2017-03-01T02:58:22.063Z,13.52
2017-03-01T02:59:02.558Z,13.51
2017-03-01T02:59:43.062Z,13.61
2017-03-01T03:00:23.578Z,13.23
2017-03-01T03:01:04.064Z,13.43
2017-03-01T03:01:44.556Z,13.62
2017-03-01T03:02:25.047Z,13.32
2017-03-01T03:03:05.539Z,13.61
2017-03-01T03:03:46.031Z,13.43
2017-03-01T03:04:26.523Z,13.42
2017-03-01T03:05:07.020Z,13.43
2017-03-01T03:05:47.515Z,13.23
2017-03-01T03:06:28.022Z,13.52
2017-03-01T03:07:08.507Z,13.52
2017-03-01T03:07:49.014Z,13.42
2017-03-01T03:08:29.507Z,13.23
2017-03-01T03:09:10.004Z,13.23
2017-03-01T03:09:50.497Z,13.13
2017-03-01T03:10:30.985Z,13.42
2017-03-01T03:11:12.087Z,13.13
2017-03-01T03:11:52.577Z,13.23
2017-03-01T03:12:33.074Z,13.52
2017-03-01T03:13:13.562Z,13.23
2017-03-01T03:13:54.059Z,13.42
2017-03-01T03:14:34.548Z,13.43
2017-03-01T03:16:47.335Z,13.23
2017-03-01T03:17:27.821Z,13.42
2017-03-01T03:18:08.333Z,13.51
2017-03-01T03:18:48.822Z,13.43
2017-03-01T03:19:29.321Z,13.52
2017-03-01T03:20:09.813Z,13.52
2017-03-01T03:20:50.301Z,13.52
2017-03-01T03:21:30.787Z,13.13
2017-03-01T03:22:11.275Z,13.61
2017-03-01T03:22:51.776Z,13.13
2017-03-01T03:23:32.263Z,13.52
2017-03-01T03:24:12.750Z,13.42
2017-03-01T03:24:53.236Z,13.42
2017-03-01T03:25:33.720Z,13.13
2017-03-01T03:26:14.222Z,13.43
2017-03-01T03:26:54.712Z,13.33
2017-03-01T03:27:35.221Z,13.13
2017-03-01T03:28:15.712Z,13.04
2017-03-01T03:28:56.207Z,13.43
2017-03-01T03:29:36.687Z,13.51
2017-03-01T03:30:17.179Z,13.51
2017-03-01T03:30:57.666Z,13.23
2017-03-01T03:31:38.157Z,13.32
2017-03-01T03:32:18.667Z,13.43
2017-03-01T03:32:59.161Z,13.61
2017-03-01T03:33:39.648Z,13.32
2017-03-01T03:34:20.132Z,13.42
2017-03-01T03:35:00.634Z,13.42
2017-03-01T03:35:41.130Z,13.33
2017-03-01T03:36:21.624Z,13.13
2017-03-01T03:37:02.116Z,13.13
2017-03-01T03:37:42.602Z,13.13
2017-03-01T03:38:23.094Z,13.33
2017-03-01T03:39:03.579Z,13.32
2017-03-01T03:39:44.072Z,13.52
2017-03-01T03:40:24.576Z,13.04
2017-03-01T03:41:05.060Z,13.13
2017-03-01T03:41:45.554Z,13.13
2017-03-01T03:42:26.044Z,13.42
2017-03-01T03:43:06.540Z,13.13
2017-03-01T03:43:47.044Z,13.51
2017-03-01T03:44:27.541Z,13.33
2017-03-01T03:45:08.040Z,13.13
2017-03-01T03:45:48.539Z,13.43
2017-03-01T03:46:29.136Z,13.62
2017-03-01T03:47:09.623Z,13.61
2017-03-01T03:47:50.114Z,13.32
2017-03-01T03:48:30.606Z,13.04
2017-03-01T03:49:11.101Z,13.32
2017-03-01T03:49:51.588Z,13.51
2017-03-01T03:50:32.087Z,13.04
2017-03-01T03:51:12.586Z,13.51
2017-03-01T03:51:53.077Z,13.04
2017-03-01T03:52:33.578Z,13.51
2017-03-01T03:53:14.068Z,13.23
2017-03-01T03:53:54.556Z,13.13
2017-03-01T03:54:35.044Z,13.32
2017-03-01T03:55:15.542Z,12.93
2017-03-01T03:55:56.032Z,13.51
2017-03-01T03:56:36.540Z,13.61
2017-03-01T03:57:17.035Z,13.13
2017-03-01T03:57:57.539Z,13.33
2017-03-01T03:58:38.031Z,13.52
2017-03-01T03:59:18.525Z,13.33
2017-03-01T03:59:59.008Z,13.13
2017-03-01T04:00:39.507Z,13.43
2017-03-01T04:01:19.996Z,13.23
2017-03-01T04:02:00.478Z,13.51
2017-03-01T04:02:40.975Z,13.52
2017-03-01T04:03:21.478Z,13.42
2017-03-01T04:04:01.987Z,12.94
2017-03-01T04:04:42.474Z,13.52
2017-03-01T04:05:22.971Z,13.23
2017-03-01T04:06:03.461Z,13.43
2017-03-01T04:06:43.953Z,13.13
2017-03-01T04:07:24.443Z,13.33
2017-03-01T04:08:04.941Z,13.23
2017-03-01T04:08:45.431Z,13.43
2017-03-01T04:09:25.920Z,13.42
2017-03-01T04:10:06.417Z,13.42
2017-03-01T04:10:46.915Z,13.32
2017-03-01T04:11:27.418Z,13.23
2017-03-01T04:12:07.912Z,13.42
2017-03-01T04:12:48.428Z,13.13
2017-03-01T04:13:28.915Z,13.23
2017-03-01T04:14:09.409Z,13.13
2017-03-01T04:14:49.907Z,12.93
2017-03-01T04:15:30.393Z,13.43
2017-03-01T04:16:10.880Z,13.32
2017-03-01T04:16:51.376Z,13.23
2017-03-01T04:17:31.869Z,13.42
2017-03-01T04:18:12.358Z,13.43
2017-03-01T04:18:52.854Z,12.94
2017-03-01T04:19:33.361Z,13.23
2017-03-01T04:20:13.851Z,13.13
2017-03-01T04:20:54.334Z,13.33
2017-03-01T04:21:34.839Z,13.43
2017-03-01T04:22:15.331Z,13.43
2017-03-01T04:22:55.822Z,13.42
2017-03-01T04:23:36.313Z,13.43
2017-03-01T04:24:16.802Z,13.43
2017-03-01T04:24:57.311Z,13.33
2017-03-01T04:25:37.799Z,13.33
2017-03-01T04:26:18.298Z,13.33
2017-03-01T04:26:58.790Z,13.33
2017-03-01T04:27:39.295Z,13.43
2017-03-01T04:28:19.779Z,13.23
2017-03-01T04:29:00.279Z,12.85
2017-03-01T04:29:40.760Z,13.23
2017-03-01T04:30:21.247Z,13.33
2017-03-01T04:31:01.737Z,13.33
2017-03-01T04:31:42.233Z,13.23
2017-03-01T04:32:22.700Z,13.23
2017-03-01T04:33:03.202Z,12.84
2017-03-01T04:33:43.690Z,13.43
2017-03-01T04:34:24.185Z,12.85
2017-03-01T04:35:04.685Z,13.23
2017-03-01T04:35:45.182Z,13.03
2017-03-01T04:36:25.665Z,13.43
2017-03-01T04:37:06.153Z,13.32
2017-03-01T04:37:46.646Z,13.33
2017-03-01T04:38:27.140Z,12.94
2017-03-01T04:39:07.627Z,12.94
2017-03-01T04:39:48.110Z,13.23
2017-03-01T04:40:28.592Z,13.23
2017-03-01T04:41:09.079Z,12.94
2017-03-01T04:41:49.583Z,13.32
2017-03-01T04:42:30.093Z,13.23
2017-03-01T04:43:10.581Z,13.04
2017-03-01T04:43:51.087Z,12.94
2017-03-01T04:44:31.580Z,13.23
2017-03-01T04:45:12.070Z,12.94
2017-03-01T04:45:52.576Z,13.04
2017-03-01T04:46:33.094Z,12.94
2017-03-01T04:47:13.580Z,13.04
2017-03-01T04:47:54.090Z,13.33
2017-03-01T04:48:34.577Z,13.04
2017-03-01T04:49:15.070Z,13.04
2017-03-01T04:49:55.559Z,13.04
2017-03-01T04:50:36.054Z,12.94
2017-03-01T04:51:16.542Z,13.04
2017-03-01T04:51:57.025Z,12.94
2017-03-01T04:52:37.530Z,12.94
2017-03-01T04:53:18.019Z,12.94
2017-03-01T04:53:58.515Z,12.94
2017-03-01T04:54:39.016Z,12.94
2017-03-01T04:55:19.499Z,13.04
2017-03-01T04:55:59.989Z,12.94
2017-03-01T04:56:40.483Z,12.94
2017-03-01T04:57:20.974Z,12.94
2017-03-01T04:58:01.466Z,12.94
2017-03-01T04:58:41.960Z,13.04
2017-03-01T04:59:22.457Z,13.04
2017-03-01T05:00:02.943Z,12.94
2017-03-01T05:00:43.434Z,13.04
2017-03-01T05:01:23.912Z,12.94
2017-03-01T05:02:04.402Z,13.03
2017-03-01T05:02:44.886Z,13.04
2017-03-01T05:03:25.379Z,13.04
2017-03-01T05:04:05.879Z,13.04
2017-03-01T05:04:46.359Z,13.04
2017-03-01T05:05:26.852Z,12.94
2017-03-01T05:06:07.349Z,13.04
2017-03-01T05:06:47.851Z,13.04
2017-03-01T05:07:28.348Z,12.94
2017-03-01T05:08:08.854Z,13.13
2017-03-01T05:08:49.348Z,12.94
2017-03-01T05:09:29.875Z,12.94
2017-03-01T05:10:10.359Z,12.94
2017-03-01T05:10:50.857Z,13.04
2017-03-01T05:11:31.362Z,12.94
2017-03-01T05:12:11.863Z,13.04
2017-03-01T05:12:52.349Z,13.13
2017-03-01T05:13:32.854Z,13.04
2017-03-01T05:14:13.349Z,12.94
2017-03-01T05:14:53.854Z,12.94
2017-03-01T05:15:34.344Z,12.94
2017-03-01T05:16:14.828Z,12.94
2017-03-01T05:16:55.315Z,12.94
2017-03-01T05:17:35.809Z,12.94
2017-03-01T05:18:16.304Z,12.94
2017-03-01T05:18:56.793Z,13.04
2017-03-01T05:19:37.304Z,13.04
2017-03-01T05:20:17.797Z,13.04
2017-03-01T05:20:58.305Z,12.94
2017-03-01T05:21:38.791Z,12.94
2017-03-01T05:22:19.300Z,12.94
2017-03-01T05:22:59.787Z,12.94
2017-03-01T05:23:40.281Z,13.04
2017-03-01T05:24:20.761Z,13.04
2017-03-01T05:25:01.259Z,12.94
2017-03-01T05:25:41.746Z,13.04
2017-03-01T05:26:22.232Z,12.94
2017-03-01T05:27:02.724Z,12.94
2017-03-01T05:27:43.228Z,13.04
2017-03-01T05:28:23.714Z,13.04
2017-03-01T05:29:04.203Z,13.04
2017-03-01T05:29:44.687Z,12.94
2017-03-01T05:30:25.188Z,12.94
2017-03-01T05:31:05.676Z,12.94
2017-03-01T05:31:46.170Z,12.94
2017-03-01T05:32:26.661Z,12.94
2017-03-01T05:33:07.152Z,12.94
2017-03-01T05:33:47.648Z,13.04
2017-03-01T05:34:28.134Z,12.94
2017-03-01T05:35:08.629Z,12.94
2017-03-01T05:35:49.121Z,12.94
2017-03-01T05:36:29.636Z,12.94
2017-03-01T05:37:10.123Z,13.04
2017-03-01T05:37:50.629Z,12.94
2017-03-01T05:38:31.120Z,12.94
2017-03-01T05:39:11.615Z,13.04
2017-03-01T05:39:52.114Z,12.94
2017-03-01T05:40:32.615Z,12.94
2017-03-01T05:41:13.111Z,12.94
2017-03-01T05:41:53.592Z,12.94
2017-03-01T05:42:34.086Z,12.94
2017-03-01T05:43:14.566Z,13.04
2017-03-01T05:43:55.058Z,13.04
2017-03-01T05:44:35.538Z,12.94
2017-03-01T05:45:16.021Z,13.04
2017-03-01T05:45:56.517Z,12.94
2017-03-01T05:46:37.008Z,13.04
2017-03-01T05:47:17.509Z,13.04
2017-03-01T05:47:58.146Z,13.13
2017-03-01T05:48:38.637Z,12.94
2017-03-01T05:49:19.117Z,12.94
2017-03-01T05:49:59.624Z,13.13
2017-03-01T05:50:40.117Z,13.04
2017-03-01T05:51:20.617Z,12.85
2017-03-01T05:52:01.108Z,13.04
2017-03-01T05:52:41.600Z,13.04
2017-03-01T05:53:22.112Z,13.04
2017-03-01T05:54:02.611Z,13.04
2017-03-01T05:54:43.104Z,13.13
2017-03-01T05:55:23.590Z,13.04
2017-03-01T05:56:04.077Z,13.13
2017-03-01T05:56:44.565Z,12.94
2017-03-01T05:57:25.056Z,12.94
2017-03-01T05:58:05.550Z,12.94
2017-03-01T05:58:46.050Z,13.13
2017-03-01T05:59:26.544Z,13.13
2017-03-01T06:00:07.056Z,13.13
2017-03-01T06:00:47.548Z,13.04
2017-03-01T06:01:28.033Z,12.94
2017-03-01T06:02:08.521Z,13.04
2017-03-01T06:02:49.012Z,13.23
2017-03-01T06:03:29.504Z,13.23
2017-03-01T06:04:09.992Z,13.23
2017-03-01T06:04:50.491Z,13.13
2017-03-01T06:05:30.986Z,13.04
2017-03-01T06:06:11.471Z,12.85
2017-03-01T06:06:51.966Z,12.94
2017-03-01T06:07:32.462Z,13.04
2017-03-01T06:08:12.962Z,13.03
2017-03-01T06:08:53.491Z,12.94
2017-03-01T06:09:33.955Z,12.93
2017-03-01T06:10:14.446Z,12.93
2017-03-01T06:10:55.106Z,12.94
2017-03-01T06:11:35.436Z,13.04
2017-03-01T06:12:15.918Z,13.13
2017-03-01T06:12:56.419Z,12.94
2017-03-01T06:13:36.915Z,13.13
2017-03-01T06:14:17.404Z,13.04
2017-03-01T06:14:57.892Z,12.94
2017-03-01T06:15:38.404Z,12.94
2017-03-01T06:16:18.898Z,12.94
2017-03-01T06:16:59.393Z,13.04
2017-03-01T06:17:39.879Z,13.13
2017-03-01T06:18:20.386Z,12.94
2017-03-01T06:19:00.883Z,13.23
2017-03-01T06:19:41.372Z,13.04
2017-03-01T06:20:21.860Z,13.23
2017-03-01T06:21:02.355Z,13.04
2017-03-01T06:21:42.844Z,13.04
2017-03-01T06:22:23.325Z,13.23
2017-03-01T06:23:03.839Z,12.85
2017-03-01T06:23:44.327Z,13.13
2017-03-01T06:24:24.832Z,13.23
2017-03-01T06:25:05.320Z,12.94
2017-03-01T06:25:45.818Z,13.13
2017-03-01T06:26:26.313Z,12.94
2017-03-01T06:27:06.829Z,13.04
2017-03-01T06:27:47.318Z,13.04
2017-03-01T06:28:27.966Z,13.23
2017-03-01T06:29:08.480Z,13.04
2017-03-01T06:29:48.969Z,13.13
2017-03-01T06:30:29.478Z,12.75
2017-03-01T06:31:09.966Z,12.94
2017-03-01T06:31:50.465Z,12.85
2017-03-01T06:32:30.945Z,12.75
2017-03-01T06:33:11.444Z,12.75
2017-03-01T06:33:51.932Z,12.75
2017-03-01T06:34:32.421Z,12.75
2017-03-01T06:35:12.922Z,12.75
2017-03-01T06:35:53.411Z,12.75
2017-03-01T06:36:33.918Z,13.04
2017-03-01T06:37:14.409Z,12.75
2017-03-01T06:37:54.910Z,12.75
2017-03-01T06:38:35.403Z,12.75
2017-03-01T06:39:15.887Z,12.75
2017-03-01T06:39:56.379Z,12.75
2017-03-01T06:40:36.867Z,13.04
2017-03-01T06:41:17.369Z,13.04
2017-03-01T06:41:57.857Z,12.85
2017-03-01T06:42:38.363Z,12.94
2017-03-01T06:43:18.855Z,12.85
2017-03-01T06:43:59.363Z,12.94
2017-03-01T06:44:39.854Z,12.75
2017-03-01T06:45:20.342Z,12.94
2017-03-01T06:46:00.829Z,12.85
2017-03-01T06:46:41.328Z,12.94
2017-03-01T06:47:21.824Z,12.94
2017-03-01T06:48:02.309Z,12.85
2017-03-01T06:48:42.810Z,12.94
2017-03-01T06:49:23.301Z,12.94
2017-03-01T06:50:03.807Z,12.85
2017-03-01T06:50:44.304Z,12.85
2017-03-01T06:51:24.805Z,12.94
2017-03-01T06:52:05.295Z,12.85
2017-03-01T06:52:45.806Z,13.04
2017-03-01T06:53:26.298Z,12.85
2017-03-01T06:54:06.796Z,12.75
2017-03-01T06:54:47.297Z,12.85
2017-03-01T06:55:27.807Z,12.85
2017-03-01T06:56:08.294Z,12.94
2017-03-01T06:56:48.798Z,12.94
2017-03-01T06:57:29.291Z,12.85
2017-03-01T06:58:09.811Z,12.75
2017-03-01T06:58:50.303Z,12.85
2017-03-01T06:59:30.799Z,12.85
2017-03-01T07:00:11.292Z,12.75
2017-03-01T07:00:51.798Z,12.56
2017-03-01T07:01:32.292Z,12.75
2017-03-01T07:02:12.783Z,12.65
2017-03-01T07:02:53.284Z,12.66
2017-03-01T07:03:33.795Z,12.66
2017-03-01T07:04:14.298Z,12.76
2017-03-01T07:04:54.799Z,12.65
2017-03-01T07:05:35.287Z,12.66
2017-03-01T07:06:15.799Z,12.76
2017-03-01T07:06:56.283Z,12.66
2017-03-01T07:07:36.777Z,12.66
2017-03-01T07:08:17.281Z,12.56
2017-03-01T07:08:57.777Z,12.76
2017-03-01T07:09:38.400Z,12.66
2017-03-01T07:10:18.892Z,12.27
2017-03-01T07:10:59.382Z,12.37
2017-03-01T07:11:39.894Z,12.37
2017-03-01T07:12:20.381Z,12.46
2017-03-01T07:13:00.870Z,12.37
2017-03-01T07:13:41.356Z,12.37
2017-03-01T07:14:21.853Z,12.27
2017-03-01T07:15:02.347Z,12.46
2017-03-01T07:15:42.847Z,12.27
2017-03-01T07:16:23.354Z,12.27
2017-03-01T07:17:03.844Z,12.46
2017-03-01T07:17:44.333Z,12.56
2017-03-01T07:18:26.036Z,12.37
2017-03-01T07:19:05.783Z,12.56
2017-03-01T07:19:46.278Z,12.46
2017-03-01T07:20:26.762Z,12.46
2017-03-01T07:21:07.249Z,12.66
2017-03-01T07:21:47.741Z,12.37
2017-03-01T07:22:28.237Z,12.37
2017-03-01T07:23:09.557Z,11.98
2017-03-01T07:23:50.987Z,11.88
2017-03-01T07:24:30.555Z,11.88
2017-03-01T07:25:11.040Z,12.08
2017-03-01T07:25:51.558Z,12.27
2017-03-01T07:26:32.049Z,12.27
2017-03-01T07:27:12.541Z,12.08
2017-03-01T07:27:53.038Z,12.08
2017-03-01T07:28:33.525Z,12.27
2017-03-01T07:29:14.014Z,12.18
2017-03-01T07:29:54.486Z,12.37
2017-03-01T07:30:35.860Z,12.18
2017-03-01T07:31:16.357Z,12.18
2017-03-01T07:31:56.884Z,12.27
2017-03-01T07:32:37.384Z,12.37
2017-03-01T07:33:18.008Z,12.27
2017-03-01T07:33:58.508Z,12.27
2017-03-01T07:34:38.985Z,12.18
2017-03-01T07:35:19.485Z,11.88
2017-03-01T07:35:59.978Z,11.88
2017-03-01T07:36:40.486Z,11.98
2017-03-01T07:37:20.980Z,11.88
2017-03-01T07:38:01.509Z,11.79
2017-03-01T07:38:41.960Z,11.79
2017-03-01T07:39:22.468Z,11.79
2017-03-01T07:40:02.954Z,11.88
2017-03-01T07:40:43.448Z,11.6
2017-03-01T07:41:23.929Z,11.6
2017-03-01T07:42:04.427Z,11.88
2017-03-01T07:42:44.928Z,11.6
2017-03-01T07:43:25.428Z,11.6
2017-03-01T07:44:06.495Z,11.69
2017-03-01T07:44:46.751Z,11.69
2017-03-01T07:45:27.251Z,11.69
2017-03-01T07:46:07.736Z,11.69
2017-03-01T07:46:48.226Z,11.69
2017-03-01T07:47:28.712Z,11.79
2017-03-01T07:48:09.212Z,11.69
2017-03-01T07:48:49.703Z,11.79
2017-03-01T07:49:30.205Z,11.79
2017-03-01T07:50:11.286Z,11.88
2017-03-01T07:50:51.789Z,11.79
2017-03-01T07:51:32.286Z,11.69
2017-03-01T07:52:12.795Z,11.79
2017-03-01T07:52:53.283Z,11.79
2017-03-01T07:53:33.773Z,11.69
2017-03-01T07:54:14.271Z,11.69
2017-03-01T07:54:54.764Z,11.79
2017-03-01T07:55:35.256Z,11.79
2017-03-01T07:56:15.755Z,11.6
2017-03-01T07:56:56.242Z,11.79
2017-03-01T07:57:36.733Z,11.6
2017-03-01T07:58:17.224Z,11.69
2017-03-01T07:58:57.731Z,11.6
2017-03-01T07:59:38.225Z,11.79
2017-03-01T08:00:18.722Z,11.79
2017-03-01T08:00:59.205Z,11.6
2017-03-01T08:01:39.699Z,11.69
2017-03-01T08:02:20.204Z,11.79
2017-03-01T08:03:01.504Z,11.69
2017-03-01T08:03:42.021Z,11.98
2017-03-01T08:04:22.515Z,11.69
2017-03-01T08:05:03.021Z,11.69
2017-03-01T08:05:43.510Z,11.69
2017-03-01T08:06:23.994Z,11.69
2017-03-01T08:07:04.496Z,11.69
2017-03-01T08:07:44.982Z,11.69
2017-03-01T08:08:25.466Z,11.69
2017-03-01T08:09:06.009Z,11.79
2017-03-01T08:09:46.494Z,11.69
2017-03-01T08:10:27.213Z,11.79
2017-03-01T08:11:07.730Z,11.79
2017-03-01T08:11:48.281Z,11.69
2017-03-01T08:12:28.778Z,11.6
2017-03-01T08:13:09.276Z,11.88
2017-03-01T08:13:49.765Z,11.79
2017-03-01T08:14:30.260Z,11.98
2017-03-01T08:15:10.756Z,12.18
2017-03-01T08:15:51.251Z,12.18
2017-03-01T08:16:31.739Z,12.27
2017-03-01T08:17:12.226Z,12.27
2017-03-01T08:17:52.723Z,11.98
2017-03-01T08:18:33.212Z,12.18
2017-03-01T08:19:14.082Z,12.08
2017-03-01T08:19:54.610Z,12.37
2017-03-01T08:20:35.101Z,12.18
2017-03-01T08:21:16.435Z,12.08
2017-03-01T08:21:56.936Z,12.27
2017-03-01T08:22:37.432Z,12.08
2017-03-01T08:23:17.946Z,11.98
2017-03-01T08:23:58.434Z,11.88
2017-03-01T08:24:38.930Z,12.27
2017-03-01T08:25:19.435Z,12.46
2017-03-01T08:25:59.913Z,12.46
2017-03-01T08:26:40.423Z,12.46
2017-03-01T08:27:20.911Z,12.56
2017-03-01T08:28:01.403Z,12.56
2017-03-01T08:28:41.892Z,12.47
2017-03-01T08:29:22.397Z,12.57
2017-03-01T08:30:02.881Z,12.27
2017-03-01T08:30:43.386Z,12.56
2017-03-01T08:31:23.883Z,12.28
2017-03-01T08:32:04.386Z,12.28
2017-03-01T08:32:44.974Z,12.28
2017-03-01T08:33:25.457Z,12.57
2017-03-01T08:34:05.944Z,12.57
2017-03-01T08:34:46.437Z,12.57
2017-03-01T08:35:26.938Z,12.47
2017-03-01T08:36:07.446Z,12.47
2017-03-01T08:36:47.947Z,12.57
2017-03-01T08:37:28.499Z,12.47
2017-03-01T08:38:08.978Z,12.57
2017-03-01T08:38:49.473Z,12.57
2017-03-01T08:39:29.971Z,12.28
2017-03-01T08:40:10.470Z,12.28
2017-03-01T08:40:50.967Z,12.38
2017-03-01T08:41:31.467Z,12.28
2017-03-01T08:42:11.944Z,12.38
2017-03-01T08:42:52.442Z,12.38